createdAt,value
2022-10-08T00:12:55.524Z,984.8
2022-10-08T00:27:26.663Z,984.7
2022-10-08T00:41:58.798Z,984.5
2022-10-08T00:56:30.109Z,984.6
2022-10-08T01:10:59.780Z,984.6
2022-10-08T01:25:31.967Z,984.6
2022-10-08T01:40:04.885Z,984.5
2022-10-08T01:54:37.146Z,984.5
2022-10-08T02:09:09.781Z,984.5
2022-10-08T02:23:42.167Z,984.5
2022-10-08T02:38:15.204Z,984.5
2022-10-08T02:52:46.817Z,984.4
2022-10-08T03:07:17.691Z,984.4
2022-10-08T03:21:51.230Z,984.5
2022-10-08T03:36:21.746Z,984.4
2022-10-08T03:50:55.371Z,984.4
2022-10-08T04:05:27.172Z,984.4
2022-10-08T04:34:36.723Z,984.5
2022-10-08T04:49:10.487Z,984.6
2022-10-08T05:03:39.895Z,984.7
2022-10-08T05:18:12.706Z,984.9
2022-10-08T05:32:46.289Z,984.9
2022-10-08T05:47:17.365Z,984.9
2022-10-08T06:01:50.165Z,985.1
2022-10-08T06:16:21.552Z,985.1
2022-10-08T06:30:54.250Z,985.2
2022-10-08T06:45:26.693Z,985.5
2022-10-08T06:59:59.604Z,985.8
2022-10-08T07:14:33.308Z,986
2022-10-08T07:29:06.818Z,986.1
2022-10-08T07:43:40.392Z,986.4
2022-10-08T07:58:13.729Z,986.6
2022-10-08T08:12:46.534Z,986.7
2022-10-08T08:27:14.872Z,986.8
2022-10-08T08:41:47.933Z,987
2022-10-08T08:56:22.223Z,987.2
2022-10-08T09:10:55.556Z,987.3
2022-10-08T09:25:29.701Z,987.5
2022-10-08T09:40:07.810Z,987.5
2022-10-08T09:54:39.275Z,987.7
2022-10-08T10:09:10.835Z,987.8
2022-10-08T10:23:43.589Z,987.7
2022-10-08T10:38:17.762Z,987.9
2022-10-08T10:52:53.141Z,987.8
2022-10-08T11:07:24.673Z,987.9
2022-10-08T11:21:58.234Z,988
2022-10-08T11:36:33.502Z,988.1
2022-10-08T11:51:05.557Z,988.1
2022-10-08T12:05:41.159Z,988
2022-10-08T12:20:15.417Z,987.8
2022-10-08T12:34:48.015Z,988.1
2022-10-08T12:49:20.701Z,988.1
2022-10-08T13:03:53.040Z,988.1
2022-10-08T13:18:34.219Z,988.3
2022-10-08T13:33:03.620Z,988.4
2022-10-08T13:47:38.538Z,988.3
2022-10-08T14:02:12.527Z,988.4
2022-10-08T14:16:44.956Z,988.6
2022-10-08T14:31:15.523Z,988.6
2022-10-08T14:45:46.630Z,988.6
2022-10-08T15:00:19.401Z,988.7
2022-10-08T15:14:49.687Z,988.8
2022-10-08T15:29:22.979Z,988.8
2022-10-08T15:43:54.522Z,988.9
2022-10-08T15:58:52.012Z,988.9
2022-10-08T16:13:11.435Z,989
2022-10-08T16:27:43.804Z,989.2
2022-10-08T16:42:15.932Z,989.4
2022-10-08T16:56:46.037Z,989.7
2022-10-08T17:11:17.906Z,989.9
2022-10-08T17:25:50.609Z,990.1
2022-10-08T17:40:21.763Z,990.4
2022-10-08T17:54:53.630Z,990.6
2022-10-08T18:09:23.060Z,990.8
2022-10-08T18:23:54.475Z,991
2022-10-08T18:38:27.731Z,991.2
2022-10-08T18:53:00.601Z,991.3
2022-10-08T19:07:32.310Z,991.4
2022-10-08T19:22:04.707Z,991.6
2022-10-08T19:36:37.159Z,991.7
2022-10-08T19:51:08.378Z,991.8
2022-10-08T20:05:39.200Z,991.9
2022-10-08T20:20:33.943Z,992
2022-10-08T20:34:54.286Z,992.2
2022-10-08T20:49:26.419Z,992.2
2022-10-08T21:03:58.507Z,992.4
2022-10-08T21:18:29.701Z,992.4
2022-10-08T21:33:02.970Z,992.3
2022-10-08T21:47:35.809Z,992.3
2022-10-08T22:02:08.618Z,992.4
2022-10-08T22:16:41.490Z,992.4
2022-10-08T22:31:13.494Z,992.4
2022-10-08T22:45:44.755Z,992.4
2022-10-08T23:00:16.742Z,992.3
2022-10-08T23:14:49.047Z,992.3
2022-10-08T23:29:21.207Z,992.3
2022-10-08T23:43:53.465Z,992.3
2022-10-08T23:58:24.157Z,992.3
